createdAt,value
2023-10-27T00:01:06.901Z,99239.53
2023-10-27T00:03:34.184Z,99248.75
2023-10-27T00:06:01.516Z,99242.81
2023-10-27T00:08:28.865Z,99255.06
2023-10-27T00:10:56.231Z,99242.81
2023-10-27T00:13:23.589Z,99244.47
2023-10-27T00:15:52.285Z,99247.81
2023-10-27T00:18:19.583Z,99240.06
2023-10-27T00:20:46.880Z,99244.47
2023-10-27T00:23:14.148Z,99238.25
2023-10-27T00:25:41.524Z,99236.31
2023-10-27T00:28:08.793Z,99236.88
2023-10-27T00:30:36.078Z,99226.84
2023-10-27T00:33:04.803Z,99229.31
2023-10-27T00:35:32.164Z,99229.94
2023-10-27T00:37:59.442Z,99228.94
2023-10-27T00:40:26.908Z,99226.94
2023-10-27T00:42:58.053Z,99224.84
2023-10-27T00:45:26.222Z,99226.81
2023-10-27T00:47:53.324Z,99220.13
2023-10-27T00:50:21.953Z,99212.53
2023-10-27T00:52:50.087Z,99220.63
2023-10-27T00:55:17.447Z,99205.16
2023-10-27T00:57:44.915Z,99200.69
2023-10-27T01:00:13.675Z,99199.66
2023-10-27T01:02:41.263Z,99197.78
2023-10-27T01:05:09.055Z,99195.22
2023-10-27T01:07:37.818Z,99206.47
2023-10-27T01:10:06.132Z,99192.22
2023-10-27T01:12:33.423Z,99192.41
2023-10-27T01:15:00.852Z,99193.94
2023-10-27T01:17:28.185Z,99190.84
2023-10-27T01:19:55.604Z,99194.22
2023-10-27T01:22:22.965Z,99192.66
2023-10-27T01:24:51.707Z,99183.06
2023-10-27T01:27:32.516Z,99184.81
2023-10-27T01:29:59.783Z,99180.44
2023-10-27T01:32:27.121Z,99179.44
2023-10-27T01:34:54.506Z,99175.78
2023-10-27T01:37:21.929Z,99180.69
2023-10-27T01:39:49.192Z,99178.88
2023-10-27T01:42:17.886Z,99175.19
2023-10-27T01:44:45.119Z,99170.66
2023-10-27T01:47:12.349Z,99168.00
2023-10-27T01:49:39.643Z,99167.72
2023-10-27T01:52:06.949Z,99169.47
2023-10-27T01:54:34.251Z,99164.81
2023-10-27T01:57:01.523Z,99164.72
2023-10-27T01:59:30.103Z,99155.78
2023-10-27T02:01:57.324Z,99158.31
2023-10-27T02:04:24.653Z,99153.16
2023-10-27T02:06:52.223Z,99157.13
2023-10-27T02:09:19.514Z,99151.09
2023-10-27T02:11:46.793Z,99155.78
2023-10-27T02:14:14.054Z,99166.72
2023-10-27T02:16:42.706Z,99170.84
2023-10-27T02:19:10.064Z,99157.34
2023-10-27T02:21:37.494Z,99170.84
2023-10-27T02:24:05.257Z,99168.00
2023-10-27T02:26:32.565Z,99170.84
2023-10-27T02:29:00.666Z,99172.47
2023-10-27T02:31:28.700Z,99173.03
2023-10-27T02:33:57.467Z,99168.09
2023-10-27T02:36:24.924Z,99171.94
2023-10-27T02:38:52.253Z,99173.41
2023-10-27T02:41:19.552Z,99177.41
2023-10-27T02:43:46.798Z,99177.22
2023-10-27T02:46:14.317Z,99184.78
2023-10-27T02:48:41.702Z,99177.78
2023-10-27T02:51:10.741Z,99181.34
2023-10-27T02:53:37.973Z,99179.97
2023-10-27T02:56:06.326Z,99181.75
2023-10-27T02:58:33.648Z,99180.13
2023-10-27T03:01:00.905Z,99182.53
2023-10-27T03:03:28.233Z,99177.59
2023-10-27T03:05:55.505Z,99182.59
2023-10-27T03:08:24.161Z,99177.78
2023-10-27T03:10:51.402Z,99175.19
2023-10-27T03:13:19.814Z,99177.88
2023-10-27T03:15:47.072Z,99179.59
2023-10-27T03:18:14.434Z,99174.69
2023-10-27T03:20:41.753Z,99175.69
2023-10-27T03:23:09.005Z,99172.28
2023-10-27T03:25:37.723Z,99175.50
2023-10-27T03:28:04.960Z,99168.84
2023-10-27T03:30:32.383Z,99170.09
2023-10-27T03:35:50.777Z,99166.63
2023-10-27T03:38:18.119Z,99170.66
2023-10-27T03:40:46.827Z,99176.03
2023-10-27T03:43:14.134Z,99174.41
2023-10-27T03:45:41.526Z,99167.69
2023-10-27T03:48:08.854Z,99171.28
2023-10-27T03:50:36.214Z,99176.47
2023-10-27T03:53:03.739Z,99172.28
2023-10-27T03:55:31.066Z,99175.31
2023-10-27T04:01:06.113Z,99164.91
2023-10-27T04:03:33.626Z,99167.56
2023-10-27T04:06:00.950Z,99166.38
2023-10-27T04:08:28.245Z,99160.78
2023-10-27T04:10:55.533Z,99162.44
2023-10-27T04:13:22.848Z,99155.72
2023-10-27T04:15:50.188Z,99151.09
2023-10-27T04:18:18.925Z,99152.22
2023-10-27T04:20:46.247Z,99158.78
2023-10-27T04:23:13.676Z,99159.41
2023-10-27T04:25:40.982Z,99154.75
2023-10-27T04:28:08.270Z,99154.38
2023-10-27T04:30:35.543Z,99154.66
2023-10-27T04:33:02.970Z,99151.28
2023-10-27T04:35:31.650Z,99146.28
2023-10-27T04:37:59.096Z,99141.25
2023-10-27T04:40:26.442Z,99136.84
2023-10-27T04:42:53.723Z,99137.50
2023-10-27T04:45:21.024Z,99131.00
2023-10-27T04:47:48.312Z,99140.50
2023-10-27T04:50:15.693Z,99131.28
2023-10-27T04:52:44.393Z,99136.59
2023-10-27T04:55:13.603Z,99131.75
2023-10-27T04:57:41.177Z,99131.66
2023-10-27T05:00:09.328Z,99134.50
2023-10-27T05:02:36.408Z,99136.41
2023-10-27T05:05:04.110Z,99138.03
2023-10-27T05:07:31.485Z,99132.28
2023-10-27T05:10:00.126Z,99136.53
2023-10-27T05:12:27.444Z,99122.50
2023-10-27T05:14:54.749Z,99127.13
2023-10-27T05:17:22.010Z,99134.84
2023-10-27T05:19:49.278Z,99128.31
2023-10-27T05:22:16.716Z,99125.31
2023-10-27T05:24:43.955Z,99121.69
2023-10-27T05:27:12.573Z,99123.97
2023-10-27T05:29:39.835Z,99120.31
2023-10-27T05:32:07.197Z,99124.34
2023-10-27T05:34:34.475Z,99126.53
2023-10-27T05:37:01.845Z,99129.66
2023-10-27T05:39:29.099Z,99124.44
2023-10-27T05:41:56.386Z,99118.69
2023-10-27T05:44:25.124Z,99127.13
2023-10-27T05:46:52.396Z,99121.69
2023-10-27T05:49:19.713Z,99132.44
2023-10-27T05:51:47.068Z,99126.69
2023-10-27T05:54:14.320Z,99130.38
2023-10-27T05:56:41.609Z,99124.47
2023-10-27T05:59:08.918Z,99124.84
2023-10-27T06:01:37.599Z,99130.19
2023-10-27T06:04:05.666Z,99132.19
2023-10-27T06:06:32.968Z,99129.56
2023-10-27T06:09:00.242Z,99129.81
2023-10-27T06:11:27.489Z,99131.00
2023-10-27T06:13:54.979Z,99135.91
2023-10-27T06:16:22.205Z,99136.03
2023-10-27T06:18:51.143Z,99134.94
2023-10-27T06:21:18.437Z,99140.50
2023-10-27T06:23:45.811Z,99139.59
2023-10-27T06:26:13.051Z,99136.22
2023-10-27T06:28:40.443Z,99144.63
2023-10-27T06:31:07.820Z,99141.75
2023-10-27T06:33:35.105Z,99138.78
2023-10-27T06:36:05.412Z,99153.75
2023-10-27T06:38:32.690Z,99149.09
2023-10-27T06:40:59.956Z,99153.75
2023-10-27T06:43:27.671Z,99161.97
2023-10-27T06:45:54.967Z,99158.69
2023-10-27T06:48:22.423Z,99161.63
2023-10-27T06:50:49.762Z,99159.28
2023-10-27T06:53:18.379Z,99169.47
2023-10-27T06:55:45.675Z,99182.53
2023-10-27T06:58:13.046Z,99179.06
2023-10-27T07:00:40.440Z,99183.63
2023-10-27T07:03:21.133Z,99184.91
2023-10-27T07:05:54.979Z,99192.22
2023-10-27T07:08:23.666Z,99194.69
2023-10-27T07:10:50.909Z,99184.78
2023-10-27T07:13:18.237Z,99187.00
2023-10-27T07:15:45.564Z,99200.50
2023-10-27T07:18:12.907Z,99201.94
2023-10-27T07:20:40.443Z,99199.53
2023-10-27T07:23:07.746Z,99199.44
2023-10-27T07:25:36.469Z,99212.50
2023-10-27T07:28:04.431Z,99213.28
2023-10-27T07:30:31.791Z,99207.94
2023-10-27T07:32:59.080Z,99206.75
2023-10-27T07:35:26.521Z,99196.38
2023-10-27T07:37:55.236Z,99190.72
2023-10-27T07:40:22.579Z,99192.00
2023-10-27T07:42:51.428Z,99191.16
2023-10-27T07:45:18.758Z,99181.66
2023-10-27T07:47:46.099Z,99178.00
2023-10-27T07:50:13.512Z,99184.03
2023-10-27T07:52:40.819Z,99185.28
2023-10-27T07:55:08.235Z,99185.59
2023-10-27T07:57:35.630Z,99182.66
2023-10-27T08:00:05.814Z,99187.69
2023-10-27T08:02:33.177Z,99189.72
2023-10-27T08:05:00.547Z,99187.00
2023-10-27T08:07:27.794Z,99191.72
2023-10-27T08:09:55.097Z,99179.25
2023-10-27T08:12:22.425Z,99171.63
2023-10-27T08:14:49.722Z,99166.31
2023-10-27T08:17:18.368Z,99175.53
2023-10-27T08:19:45.712Z,99168.59
2023-10-27T08:22:13.008Z,99171.50
2023-10-27T08:24:40.217Z,99165.34
2023-10-27T08:27:07.574Z,99162.69
2023-10-27T08:29:34.870Z,99165.78
2023-10-27T08:32:02.221Z,99156.63
2023-10-27T08:34:30.941Z,99156.72
2023-10-27T08:36:58.226Z,99157.72
2023-10-27T08:39:25.457Z,99153.88
2023-10-27T08:41:54.758Z,99160.56
2023-10-27T08:44:25.857Z,99163.94
2023-10-27T08:46:53.467Z,99163.13
2023-10-27T08:49:20.785Z,99168.22
2023-10-27T08:51:49.727Z,99172.44
2023-10-27T08:54:18.879Z,99174.09
2023-10-27T08:56:46.642Z,99174.19
2023-10-27T08:59:13.908Z,99174.09
2023-10-27T09:01:41.235Z,99173.44
2023-10-27T09:04:10.340Z,99170.59
2023-10-27T09:06:38.793Z,99170.97
2023-10-27T09:09:08.555Z,99169.00
2023-10-27T09:11:40.492Z,99167.69
2023-10-27T09:14:17.388Z,99170.72
2023-10-27T09:16:44.816Z,99181.41
2023-10-27T09:19:22.995Z,99172.66
2023-10-27T09:21:50.355Z,99164.53
2023-10-27T09:24:29.319Z,99158.09
2023-10-27T09:26:58.022Z,99160.00
2023-10-27T09:29:25.382Z,99159.66
2023-10-27T09:31:53.293Z,99165.97
2023-10-27T09:34:22.397Z,99164.41
2023-10-27T09:36:51.075Z,99161.31
2023-10-27T09:39:19.035Z,99162.50
2023-10-27T09:41:48.973Z,99167.88
2023-10-27T09:44:16.940Z,99166.72
2023-10-27T09:46:55.813Z,99171.66
2023-10-27T09:49:32.146Z,99168.41
2023-10-27T09:52:01.395Z,99168.03
2023-10-27T09:54:30.721Z,99171.84
2023-10-27T09:57:00.819Z,99165.06
2023-10-27T09:59:29.665Z,99178.66
2023-10-27T10:01:58.918Z,99180.22
2023-10-27T10:04:57.179Z,99181.06
2023-10-27T10:07:34.797Z,99181.47
2023-10-27T10:10:19.834Z,99173.75
2023-10-27T10:13:09.212Z,99178.28
2023-10-27T10:15:38.643Z,99176.91
2023-10-27T10:18:06.735Z,99168.34
2023-10-27T10:20:56.417Z,99164.06
2023-10-27T10:23:25.247Z,99152.50
2023-10-27T10:25:53.215Z,99154.56
2023-10-27T10:28:26.394Z,99159.03
2023-10-27T10:31:23.050Z,99145.59
2023-10-27T10:33:50.588Z,99142.63
2023-10-27T10:36:24.510Z,99143.22
2023-10-27T10:38:58.830Z,99151.03
2023-10-27T10:41:44.270Z,99152.03
2023-10-27T10:44:14.169Z,99149.50
2023-10-27T10:46:41.982Z,99152.09
2023-10-27T10:49:10.130Z,99149.03
2023-10-27T10:51:37.682Z,99146.09
2023-10-27T10:54:13.140Z,99153.25
2023-10-27T10:56:40.670Z,99148.50
2023-10-27T10:59:07.933Z,99142.31
2023-10-27T11:01:36.688Z,99143.13
2023-10-27T11:04:04.558Z,99146.34
2023-10-27T11:06:31.954Z,99140.56
2023-10-27T11:08:59.218Z,99141.44
2023-10-27T11:11:38.231Z,99144.13
2023-10-27T11:14:09.426Z,99136.13
2023-10-27T11:16:38.122Z,99142.25
2023-10-27T11:19:16.413Z,99146.31
2023-10-27T11:21:43.756Z,99150.84
2023-10-27T11:24:11.726Z,99143.56
2023-10-27T11:26:39.966Z,99146.94
2023-10-27T11:29:08.637Z,99139.03
2023-10-27T11:31:35.932Z,99144.38
2023-10-27T11:34:05.890Z,99152.47
2023-10-27T11:36:34.306Z,99155.81
2023-10-27T11:39:15.305Z,99151.81
2023-10-27T11:41:44.465Z,99151.59
2023-10-27T11:44:11.768Z,99151.97
2023-10-27T11:46:45.853Z,99153.41
2023-10-27T11:49:14.647Z,99157.53
2023-10-27T11:51:43.339Z,99163.22
2023-10-27T11:54:10.624Z,99151.78
2023-10-27T11:56:37.981Z,99157.00
2023-10-27T11:59:05.780Z,99159.75
2023-10-27T12:01:33.214Z,99154.31
2023-10-27T12:04:01.389Z,99152.34
2023-10-27T12:06:30.065Z,99156.38
2023-10-27T12:08:57.346Z,99161.22
2023-10-27T12:11:24.664Z,99158.63
2023-10-27T12:13:51.939Z,99163.91
2023-10-27T12:16:19.265Z,99160.41
2023-10-27T12:18:46.586Z,99154.81
2023-10-27T12:21:13.862Z,99158.41
2023-10-27T12:23:42.590Z,99159.59
2023-10-27T12:26:09.923Z,99150.25
2023-10-27T12:28:37.235Z,99157.38
2023-10-27T12:31:04.706Z,99156.56
2023-10-27T12:33:31.993Z,99151.81
2023-10-27T12:36:06.220Z,99154.72
2023-10-27T12:38:33.378Z,99150.16
2023-10-27T12:41:01.951Z,99160.75
2023-10-27T12:43:29.260Z,99149.69
2023-10-27T12:45:56.601Z,99151.34
2023-10-27T12:48:23.900Z,99149.44
2023-10-27T12:50:51.273Z,99157.19
2023-10-27T12:53:18.618Z,99160.84
2023-10-27T12:55:45.960Z,99163.66
2023-10-27T12:58:14.697Z,99154.69
2023-10-27T13:00:43.453Z,99147.84
2023-10-27T13:03:11.463Z,99147.06
2023-10-27T13:05:38.947Z,99149.69
2023-10-27T13:08:06.493Z,99154.75
2023-10-27T13:10:33.900Z,99150.06
2023-10-27T13:13:01.314Z,99146.41
2023-10-27T13:15:32.366Z,99155.25
2023-10-27T13:17:59.713Z,99156.94
2023-10-27T13:20:27.369Z,99153.00
2023-10-27T13:22:54.657Z,99162.28
2023-10-27T13:25:22.025Z,99152.75
2023-10-27T13:27:49.542Z,99162.38
2023-10-27T13:30:16.961Z,99157.72
2023-10-27T13:32:47.764Z,99157.44
2023-10-27T13:35:15.111Z,99160.22
2023-10-27T13:37:42.525Z,99163.94
2023-10-27T13:40:11.135Z,99162.47
2023-10-27T13:42:39.445Z,99165.88
2023-10-27T13:45:07.572Z,99166.88
2023-10-27T13:47:34.881Z,99163.03
2023-10-27T13:50:03.771Z,99171.81
2023-10-27T13:52:31.101Z,99173.63
2023-10-27T13:54:58.610Z,99173.53
2023-10-27T13:57:26.404Z,99179.97
2023-10-27T13:59:53.675Z,99172.91
2023-10-27T14:02:20.999Z,99175.88
2023-10-27T14:04:48.643Z,99182.41
2023-10-27T14:07:17.669Z,99188.44
2023-10-27T14:09:45.204Z,99184.69
2023-10-27T14:12:12.523Z,99178.38
2023-10-27T14:14:39.780Z,99183.13
2023-10-27T14:17:07.030Z,99180.75
2023-10-27T14:19:34.378Z,99178.00
2023-10-27T14:22:01.679Z,99189.97
2023-10-27T14:24:30.344Z,99184.78
2023-10-27T14:26:58.851Z,99191.44
2023-10-27T14:29:26.115Z,99193.56
2023-10-27T14:31:53.426Z,99185.78
2023-10-27T14:34:20.850Z,99185.09
2023-10-27T14:36:48.148Z,99199.44
2023-10-27T14:39:15.427Z,99187.00
2023-10-27T14:41:44.375Z,99192.38
2023-10-27T14:44:11.914Z,99187.28
2023-10-27T14:46:39.247Z,99196.81
2023-10-27T14:49:06.885Z,99191.66
2023-10-27T14:51:34.216Z,99193.50
2023-10-27T14:54:01.895Z,99201.91
2023-10-27T14:56:29.252Z,99197.97
2023-10-27T14:58:57.938Z,99202.47
2023-10-27T15:01:25.854Z,99204.63
2023-10-27T15:03:53.610Z,99205.34
2023-10-27T15:06:21.951Z,99211.84
2023-10-27T15:08:49.199Z,99213.84
2023-10-27T15:11:16.597Z,99205.38
2023-10-27T15:13:44.075Z,99215.63
2023-10-27T15:16:14.711Z,99211.47
2023-10-27T15:18:42.384Z,99217.53
2023-10-27T15:21:11.314Z,99229.72
2023-10-27T15:23:38.735Z,99225.72
2023-10-27T15:26:07.571Z,99234.31
2023-10-27T15:28:34.896Z,99229.84
2023-10-27T15:31:03.742Z,99237.25
2023-10-27T15:33:35.176Z,99239.97
2023-10-27T15:36:07.221Z,99242.44
2023-10-27T15:38:35.166Z,99243.84
2023-10-27T15:41:04.203Z,99251.78
2023-10-27T15:43:32.035Z,99249.84
2023-10-27T15:46:00.783Z,99250.72
2023-10-27T15:48:28.573Z,99251.13
2023-10-27T15:51:01.045Z,99258.06
2023-10-27T15:53:28.531Z,99259.59
2023-10-27T15:55:56.071Z,99261.66
2023-10-27T15:58:25.612Z,99260.97
2023-10-27T16:00:55.701Z,99264.38
2023-10-27T16:03:24.162Z,99274.03
2023-10-27T16:05:51.753Z,99263.25
2023-10-27T16:08:20.437Z,99267.25
2023-10-27T16:10:48.276Z,99260.91
2023-10-27T16:13:15.863Z,99267.84
2023-10-27T16:15:43.321Z,99268.56
2023-10-27T16:18:11.146Z,99278.06
2023-10-27T16:20:39.327Z,99282.25
2023-10-27T16:23:07.225Z,99273.09
2023-10-27T16:25:36.324Z,99272.25
2023-10-27T16:28:04.248Z,99279.84
2023-10-27T16:30:31.628Z,99284.78
2023-10-27T16:32:58.938Z,99277.72
2023-10-27T16:35:26.451Z,99278.47
2023-10-27T16:37:53.759Z,99276.75
2023-10-27T16:40:21.110Z,99285.59
2023-10-27T16:42:50.752Z,99281.47
2023-10-27T16:45:18.089Z,99285.47
2023-10-27T16:47:46.388Z,99284.47
2023-10-27T16:50:14.046Z,99289.47
2023-10-27T16:52:41.394Z,99292.06
2023-10-27T16:55:09.105Z,99290.06
2023-10-27T16:57:36.700Z,99298.25
2023-10-27T17:00:07.128Z,99300.91
2023-10-27T17:02:34.606Z,99296.41
2023-10-27T17:05:02.133Z,99298.66
2023-10-27T17:07:30.598Z,99298.91
2023-10-27T17:09:57.958Z,99291.38
2023-10-27T17:12:25.390Z,99296.50
2023-10-27T17:14:53.041Z,99308.78
2023-10-27T17:17:21.806Z,99304.41
2023-10-27T17:19:51.282Z,99305.19
2023-10-27T17:22:20.758Z,99305.66
2023-10-27T17:24:53.359Z,99310.00
2023-10-27T17:27:22.151Z,99310.31
2023-10-27T17:29:49.309Z,99307.34
2023-10-27T17:32:16.714Z,99309.94
2023-10-27T17:34:45.549Z,99311.44
2023-10-27T17:37:12.790Z,99316.88
2023-10-27T17:39:40.115Z,99310.53
2023-10-27T17:42:07.434Z,99306.41
2023-10-27T17:44:34.748Z,99310.47
2023-10-27T17:47:02.088Z,99310.00
2023-10-27T17:49:29.406Z,99313.34
2023-10-27T17:51:58.067Z,99315.44
2023-10-27T17:54:25.284Z,99313.97
2023-10-27T17:56:52.569Z,99317.25
2023-10-27T17:59:20.849Z,99321.44
2023-10-27T18:01:48.173Z,99323.78
2023-10-27T18:04:17.040Z,99331.19
2023-10-27T18:06:44.360Z,99323.13
2023-10-27T18:09:13.264Z,99330.41
2023-10-27T18:11:40.536Z,99326.75
2023-10-27T18:14:07.817Z,99323.72
2023-10-27T18:16:35.152Z,99327.53
2023-10-27T18:19:02.585Z,99328.88
2023-10-27T18:21:29.940Z,99326.31
2023-10-27T18:23:57.232Z,99324.13
2023-10-27T18:26:26.952Z,99331.34
2023-10-27T18:28:54.337Z,99330.88
2023-10-27T18:31:21.699Z,99318.19
2023-10-27T18:33:48.976Z,99328.78
2023-10-27T18:36:17.904Z,99328.41
2023-10-27T18:38:48.226Z,99327.03
2023-10-27T18:41:16.256Z,99321.94
2023-10-27T18:43:45.144Z,99330.72
2023-10-27T18:46:12.650Z,99327.13
2023-10-27T18:48:39.981Z,99334.03
2023-10-27T18:51:07.378Z,99337.81
2023-10-27T18:53:37.421Z,99332.69
2023-10-27T18:56:06.805Z,99335.94
2023-10-27T18:58:34.457Z,99339.94
2023-10-27T19:01:05.759Z,99333.59
2023-10-27T19:03:33.322Z,99333.97
2023-10-27T19:06:01.029Z,99330.44
2023-10-27T19:08:28.441Z,99335.94
2023-10-27T19:11:03.395Z,99327.03
2023-10-27T19:13:31.687Z,99339.00
2023-10-27T19:15:59.206Z,99351.47
2023-10-27T19:18:28.142Z,99348.75
2023-10-27T19:21:03.700Z,99346.94
2023-10-27T19:23:31.844Z,99346.72
2023-10-27T19:26:08.480Z,99349.53
2023-10-27T19:28:35.800Z,99356.50
2023-10-27T19:31:03.247Z,99352.22
2023-10-27T19:33:31.970Z,99354.50
2023-10-27T19:35:59.271Z,99357.81
2023-10-27T19:38:26.516Z,99360.16
2023-10-27T19:40:53.858Z,99363.97
2023-10-27T19:43:21.243Z,99366.34
2023-10-27T19:45:49.646Z,99363.63
2023-10-27T19:48:17.180Z,99364.16
2023-10-27T19:50:48.028Z,99370.03
2023-10-27T19:53:15.552Z,99370.88
2023-10-27T19:55:43.142Z,99369.56
2023-10-27T19:58:10.883Z,99365.41
2023-10-27T20:00:38.450Z,99365.09
2023-10-27T20:03:05.883Z,99367.94
2023-10-27T20:05:34.446Z,99359.81
2023-10-27T20:08:03.175Z,99365.34
2023-10-27T20:10:35.924Z,99359.53
2023-10-27T20:13:03.276Z,99363.72
2023-10-27T20:15:33.473Z,99364.06
2023-10-27T20:18:01.089Z,99377.31
2023-10-27T20:20:28.349Z,99372.56
2023-10-27T20:22:55.654Z,99367.75
2023-10-27T20:25:24.892Z,99375.50
2023-10-27T20:27:52.267Z,99371.06
2023-10-27T20:30:19.805Z,99378.63
2023-10-27T20:32:47.149Z,99373.50
2023-10-27T20:35:14.478Z,99376.28
2023-10-27T20:37:41.851Z,99371.03
2023-10-27T20:40:10.496Z,99371.81
2023-10-27T20:42:39.159Z,99372.66
2023-10-27T20:45:07.728Z,99376.78
2023-10-27T20:47:35.076Z,99373.22
2023-10-27T20:50:02.428Z,99378.16
2023-10-27T20:52:29.703Z,99372.06
2023-10-27T20:54:57.061Z,99377.41
2023-10-27T20:57:24.350Z,99369.13
2023-10-27T20:59:52.942Z,99375.13
2023-10-27T21:02:20.291Z,99379.44
2023-10-27T21:04:47.671Z,99378.41
2023-10-27T21:07:15.208Z,99378.72
2023-10-27T21:09:42.566Z,99384.31
2023-10-27T21:12:09.814Z,99380.66
2023-10-27T21:14:37.115Z,99373.44
2023-10-27T21:17:06.069Z,99371.31
2023-10-27T21:19:33.517Z,99380.03
2023-10-27T21:22:00.808Z,99384.59
2023-10-27T21:24:28.129Z,99381.63
2023-10-27T21:26:55.493Z,99380.16
2023-10-27T21:29:22.777Z,99385.81
2023-10-27T21:31:50.101Z,99385.81
2023-10-27T21:34:20.317Z,99389.69
2023-10-27T21:36:48.739Z,99390.00
2023-10-27T21:39:16.131Z,99386.41
2023-10-27T21:41:43.665Z,99390.75
2023-10-27T21:44:10.999Z,99387.84
2023-10-27T21:46:38.310Z,99395.38
2023-10-27T21:49:05.965Z,99394.28
2023-10-27T21:51:34.583Z,99394.94
2023-10-27T21:54:01.801Z,99403.22
2023-10-27T21:56:29.088Z,99391.50
2023-10-27T21:58:56.381Z,99401.44
2023-10-27T22:01:24.004Z,99396.47
2023-10-27T22:03:58.352Z,99391.56
2023-10-27T22:06:26.585Z,99395.59
2023-10-27T22:08:55.234Z,99391.34
2023-10-27T22:11:22.571Z,99397.34
2023-10-27T22:13:49.940Z,99389.97
2023-10-27T22:16:17.175Z,99398.94
2023-10-27T22:18:44.485Z,99401.13
2023-10-27T22:21:12.237Z,99401.47
2023-10-27T22:23:41.177Z,99405.81
2023-10-27T22:26:09.909Z,99405.09
2023-10-27T22:28:38.989Z,99400.25
2023-10-27T22:31:06.359Z,99397.69
2023-10-27T22:33:33.663Z,99403.94
2023-10-27T22:36:00.916Z,99397.03
2023-10-27T22:38:28.250Z,99400.06
2023-10-27T22:40:55.610Z,99402.53
2023-10-27T22:43:24.486Z,99395.59
2023-10-27T22:45:52.916Z,99398.94
2023-10-27T22:48:20.168Z,99393.00
2023-10-27T22:50:47.484Z,99399.25
2023-10-27T22:53:14.707Z,99390.88
2023-10-27T22:55:46.039Z,99396.66
2023-10-27T22:58:13.590Z,99397.50
2023-10-27T23:00:42.729Z,99396.66
2023-10-27T23:03:10.141Z,99394.69
2023-10-27T23:05:37.749Z,99390.06
2023-10-27T23:08:05.099Z,99398.16
2023-10-27T23:10:32.467Z,99390.03
2023-10-27T23:12:59.936Z,99392.34
2023-10-27T23:15:27.209Z,99391.66
2023-10-27T23:17:55.962Z,99385.34
2023-10-27T23:20:23.421Z,99386.72
2023-10-27T23:22:50.745Z,99390.06
2023-10-27T23:25:18.073Z,99392.88
2023-10-27T23:27:45.347Z,99391.13
2023-10-27T23:30:13.316Z,99395.44
2023-10-27T23:32:40.646Z,99385.53
2023-10-27T23:35:09.842Z,99383.63
2023-10-27T23:37:37.176Z,99387.72
2023-10-27T23:40:05.100Z,99387.88
2023-10-27T23:42:32.409Z,99378.47
2023-10-27T23:44:59.769Z,99380.81
2023-10-27T23:47:27.087Z,99385.47
2023-10-27T23:49:54.511Z,99380.25
2023-10-27T23:52:23.152Z,99384.94
2023-10-27T23:54:50.389Z,99384.41
2023-10-27T23:57:17.677Z,99379.91
2023-10-27T23:59:45.006Z,99384.94
